createdAt,value
2023-10-14T00:01:08.167Z,96469.56
2023-10-14T00:03:37.510Z,96484.31
2023-10-14T00:06:08.337Z,96471.91
2023-10-14T00:08:36.563Z,96472.31
2023-10-14T00:11:06.559Z,96476.31
2023-10-14T00:13:42.224Z,96477.38
2023-10-14T00:16:26.152Z,96473.84
2023-10-14T00:18:56.948Z,96479.38
2023-10-14T00:21:25.440Z,96481.53
2023-10-14T00:23:56.915Z,96481.09
2023-10-14T00:26:25.653Z,96472.78
2023-10-14T00:28:56.784Z,96477.09
2023-10-14T00:31:25.440Z,96464.88
2023-10-14T00:33:54.678Z,96465.13
2023-10-14T00:36:32.158Z,96469.44
2023-10-14T00:39:00.060Z,96469.97
2023-10-14T00:41:28.152Z,96467.28
2023-10-14T00:43:58.125Z,96466.75
2023-10-14T00:46:32.741Z,96465.41
2023-10-14T00:49:02.761Z,96473.16
2023-10-14T00:51:34.581Z,96468.88
2023-10-14T00:54:03.670Z,96466.75
2023-10-14T00:56:32.680Z,96466.78
2023-10-14T00:59:04.614Z,96482.84
2023-10-14T01:01:33.498Z,96477.47
2023-10-14T01:04:19.361Z,96466.22
2023-10-14T01:07:04.265Z,96463.56
2023-10-14T01:09:50.440Z,96472.66
2023-10-14T01:12:20.345Z,96472.66
2023-10-14T01:14:53.245Z,96471.03
2023-10-14T01:17:27.599Z,96467.03
2023-10-14T01:19:55.659Z,96450.69
2023-10-14T01:22:24.901Z,96438.91
2023-10-14T01:24:56.269Z,96436.50
2023-10-14T01:27:26.371Z,96432.75
2023-10-14T01:29:54.318Z,96424.47
2023-10-14T01:32:45.154Z,96419.09
2023-10-14T01:35:23.854Z,96408.63
2023-10-14T01:37:53.257Z,96408.41
2023-10-14T01:40:30.453Z,96396.63
2023-10-14T01:43:01.754Z,96403.06
2023-10-14T01:45:33.630Z,96384.31
2023-10-14T01:48:13.372Z,96376.28
2023-10-14T01:50:46.805Z,96369.31
2023-10-14T01:53:18.883Z,96364.75
2023-10-14T01:55:48.294Z,96368.25
2023-10-14T01:58:22.720Z,96363.97
2023-10-14T02:00:59.962Z,96369.84
2023-10-14T02:03:35.053Z,96370.41
2023-10-14T02:06:12.017Z,96365.59
2023-10-14T02:08:41.345Z,96364.50
2023-10-14T02:11:10.565Z,96356.50
2023-10-14T02:13:38.618Z,96351.41
2023-10-14T02:16:09.315Z,96348.19
2023-10-14T02:18:39.130Z,96347.13
2023-10-14T02:21:08.190Z,96332.94
2023-10-14T02:23:49.335Z,96321.97
2023-10-14T02:26:23.771Z,96321.97
2023-10-14T02:28:54.356Z,96309.13
2023-10-14T02:31:31.097Z,96304.34
2023-10-14T02:34:01.778Z,96311.81
2023-10-14T02:36:30.811Z,96303.28
2023-10-14T02:38:59.399Z,96294.97
2023-10-14T02:41:32.872Z,96297.09
2023-10-14T02:44:20.052Z,96292.28
2023-10-14T02:46:48.412Z,96283.75
2023-10-14T02:49:16.627Z,96292.00
2023-10-14T02:51:44.939Z,96289.31
2023-10-14T02:54:27.442Z,96280.78
2023-10-14T02:57:00.670Z,96280.00
2023-10-14T02:59:40.274Z,96276.25
2023-10-14T03:02:18.103Z,96272.78
2023-10-14T03:04:56.201Z,96275.16
2023-10-14T03:07:28.480Z,96261.25
2023-10-14T03:09:59.636Z,96275.41
2023-10-14T03:12:29.186Z,96264.47
2023-10-14T03:14:57.152Z,96264.22
2023-10-14T03:17:40.250Z,96264.44
2023-10-14T03:20:26.546Z,96250.53
2023-10-14T03:22:56.320Z,96254.31
2023-10-14T03:25:24.426Z,96249.50
2023-10-14T03:28:00.546Z,96244.16
2023-10-14T03:30:29.040Z,96249.50
2023-10-14T03:32:56.923Z,96244.16
2023-10-14T03:35:29.189Z,96238.00
2023-10-14T03:38:01.591Z,96230.25
2023-10-14T03:40:53.084Z,96237.72
2023-10-14T03:43:22.617Z,96226.50
2023-10-14T03:45:55.189Z,96229.19
2023-10-14T03:48:28.123Z,96209.66
2023-10-14T03:51:04.059Z,96215.03
2023-10-14T03:53:33.731Z,96221.94
2023-10-14T03:56:02.043Z,96209.16
2023-10-14T03:58:33.030Z,96204.56
2023-10-14T04:01:03.742Z,96211.00
2023-10-14T04:03:40.978Z,96208.34
2023-10-14T04:06:10.448Z,96219.03
2023-10-14T04:08:49.255Z,96225.97
2023-10-14T04:11:18.657Z,96220.34
2023-10-14T04:13:59.969Z,96233.75
2023-10-14T04:16:38.023Z,96228.09
2023-10-14T04:19:18.976Z,96219.03
2023-10-14T04:21:54.429Z,96209.66
2023-10-14T04:24:29.753Z,96211.53
2023-10-14T04:27:18.096Z,96213.94
2023-10-14T04:29:52.837Z,96219.56
2023-10-14T04:32:28.182Z,96204.63
2023-10-14T04:34:58.335Z,96201.34
2023-10-14T04:37:37.723Z,96209.66
2023-10-14T04:40:17.382Z,96219.56
2023-10-14T04:42:46.694Z,96206.19
2023-10-14T04:45:17.528Z,96215.00
2023-10-14T04:47:48.978Z,96219.81
2023-10-14T04:50:22.849Z,96209.66
2023-10-14T04:52:51.065Z,96213.13
2023-10-14T04:55:26.729Z,96213.94
2023-10-14T04:58:10.809Z,96210.47
2023-10-14T05:00:43.614Z,96209.94
2023-10-14T05:03:13.514Z,96190.41
2023-10-14T05:05:44.562Z,96199.78
2023-10-14T05:08:17.257Z,96196.03
2023-10-14T05:10:45.879Z,96205.13
2023-10-14T05:13:15.083Z,96208.06
2023-10-14T05:15:45.331Z,96210.47
2023-10-14T05:18:28.487Z,96213.94
2023-10-14T05:21:05.497Z,96219.28
2023-10-14T05:23:33.725Z,96217.94
2023-10-14T05:26:07.917Z,96232.34
2023-10-14T05:28:38.384Z,96238.22
2023-10-14T05:31:09.832Z,96237.16
2023-10-14T05:33:37.879Z,96244.91
2023-10-14T05:36:07.282Z,96241.94
2023-10-14T05:38:35.251Z,96228.06
2023-10-14T05:41:07.928Z,96225.91
2023-10-14T05:43:35.816Z,96219.25
2023-10-14T05:46:13.631Z,96224.56
2023-10-14T05:48:41.900Z,96244.63
2023-10-14T05:51:09.872Z,96232.88
2023-10-14T05:53:37.765Z,96233.41
2023-10-14T05:56:13.904Z,96234.44
2023-10-14T05:58:41.859Z,96253.38
2023-10-14T06:01:11.646Z,96240.34
2023-10-14T06:03:39.587Z,96244.63
2023-10-14T06:06:10.959Z,96248.34
2023-10-14T06:08:39.240Z,96257.19
2023-10-14T06:11:14.115Z,96257.97
2023-10-14T06:13:42.031Z,96265.19
2023-10-14T06:16:11.897Z,96256.34
2023-10-14T06:18:39.790Z,96264.88
2023-10-14T06:21:09.676Z,96271.53
2023-10-14T06:23:41.078Z,96273.06
2023-10-14T06:26:09.101Z,96274.50
2023-10-14T06:28:39.096Z,96267.53
2023-10-14T06:31:07.304Z,96269.16
2023-10-14T06:33:36.754Z,96273.69
2023-10-14T06:36:08.747Z,96271.56
2023-10-14T06:38:37.792Z,96283.84
2023-10-14T06:41:06.753Z,96286.25
2023-10-14T06:43:35.465Z,96284.66
2023-10-14T06:46:06.226Z,96289.44
2023-10-14T06:48:34.354Z,96304.53
2023-10-14T06:51:03.699Z,96294.09
2023-10-14T06:53:31.627Z,96304.31
2023-10-14T06:56:01.717Z,96305.09
2023-10-14T06:58:30.361Z,96315.31
2023-10-14T07:00:58.864Z,96312.41
2023-10-14T07:03:26.804Z,96319.59
2023-10-14T07:05:59.865Z,96318.31
2023-10-14T07:08:29.712Z,96322.59
2023-10-14T07:10:57.775Z,96338.56
2023-10-14T07:13:26.089Z,96333.75
2023-10-14T07:15:55.135Z,96333.72
2023-10-14T07:18:25.338Z,96340.59
2023-10-14T07:20:58.701Z,96341.06
2023-10-14T07:23:26.614Z,96342.19
2023-10-14T07:25:55.974Z,96340.34
2023-10-14T07:28:24.036Z,96341.72
2023-10-14T07:30:52.138Z,96343.56
2023-10-14T07:33:21.462Z,96350.72
2023-10-14T07:35:49.669Z,96355.00
2023-10-14T07:38:17.624Z,96351.72
2023-10-14T07:40:45.575Z,96353.75
2023-10-14T07:43:14.873Z,96348.94
2023-10-14T07:45:44.922Z,96337.78
2023-10-14T07:48:13.660Z,96339.13
2023-10-14T07:50:43.343Z,96346.00
2023-10-14T07:53:14.120Z,96334.78
2023-10-14T07:55:42.382Z,96343.75
2023-10-14T07:58:12.254Z,96365.31
2023-10-14T08:00:50.271Z,96412.19
2023-10-14T08:03:19.592Z,96407.19
2023-10-14T08:05:49.815Z,96398.84
2023-10-14T08:08:21.134Z,96382.31
2023-10-14T08:10:50.675Z,96355.84
2023-10-14T08:13:22.919Z,96369.28
2023-10-14T08:15:53.898Z,96416.13
2023-10-14T08:18:24.816Z,96438.63
2023-10-14T08:20:54.878Z,96459.13
2023-10-14T08:23:22.841Z,96457.66
2023-10-14T08:25:55.247Z,96477.25
2023-10-14T08:28:23.685Z,96483.38
2023-10-14T08:30:53.153Z,96502.03
2023-10-14T08:33:21.700Z,96499.81
2023-10-14T08:35:49.696Z,96491.13
2023-10-14T08:38:20.693Z,96448.84
2023-10-14T08:40:50.844Z,96434.41
2023-10-14T08:43:21.682Z,96402.06
2023-10-14T08:45:50.010Z,96381.47
2023-10-14T08:48:20.026Z,96368.53
2023-10-14T08:50:50.516Z,96370.84
2023-10-14T08:53:18.419Z,96347.25
2023-10-14T08:55:48.276Z,96283.34
2023-10-14T08:58:19.124Z,96257.00
2023-10-14T09:00:47.397Z,96226.06
2023-10-14T09:03:15.425Z,96091.22
2023-10-14T09:05:46.165Z,96075.78
2023-10-14T09:08:15.602Z,96157.63
2023-10-14T09:10:43.987Z,96159.72
2023-10-14T09:13:12.688Z,96162.38
2023-10-14T09:15:41.373Z,96159.38
2023-10-14T09:18:13.158Z,96179.94
2023-10-14T09:20:41.585Z,96172.78
2023-10-14T09:23:18.786Z,96164.72
2023-10-14T09:25:47.640Z,96168.75
2023-10-14T09:28:18.277Z,96159.06
2023-10-14T09:30:47.670Z,96173.41
2023-10-14T09:33:17.479Z,96179.78
2023-10-14T09:35:46.668Z,96182.69
2023-10-14T09:38:15.915Z,96185.84
2023-10-14T09:40:45.386Z,96188.59
2023-10-14T09:43:13.936Z,96196.31
2023-10-14T09:45:45.631Z,96206.53
2023-10-14T09:48:16.140Z,96213.72
2023-10-14T09:50:45.387Z,96211.59
2023-10-14T09:53:15.313Z,96220.66
2023-10-14T09:55:46.326Z,96227.78
2023-10-14T09:58:15.414Z,96240.47
2023-10-14T10:00:43.458Z,96259.97
2023-10-14T10:03:12.861Z,96272.22
2023-10-14T10:05:43.592Z,96277.38
2023-10-14T10:08:22.490Z,96288.91
2023-10-14T10:10:52.436Z,96305.25
2023-10-14T10:13:24.565Z,96326.91
2023-10-14T10:15:52.899Z,96330.44
2023-10-14T10:18:24.114Z,96336.78
2023-10-14T10:20:56.750Z,96357.84
2023-10-14T10:23:24.865Z,96370.59
2023-10-14T10:25:54.760Z,96372.38
2023-10-14T10:28:41.495Z,96392.47
2023-10-14T10:31:12.103Z,96422.16
2023-10-14T10:33:54.939Z,96445.97
2023-10-14T10:36:25.732Z,96449.38
2023-10-14T10:38:55.902Z,96475.22
2023-10-14T10:41:26.898Z,96480.34
2023-10-14T10:43:55.576Z,96498.72
2023-10-14T10:46:33.497Z,96506.38
2023-10-14T10:49:01.632Z,96516.72
2023-10-14T10:51:32.912Z,96528.56
2023-10-14T10:54:01.894Z,96543.41
2023-10-14T10:56:31.869Z,96550.81
2023-10-14T10:59:01.134Z,96562.16
2023-10-14T11:01:33.180Z,96582.66
2023-10-14T11:04:02.884Z,96598.09
2023-10-14T11:06:32.449Z,96619.22
2023-10-14T11:09:00.556Z,96621.34
2023-10-14T11:11:38.839Z,96625.59
2023-10-14T11:14:17.129Z,96644.13
2023-10-14T11:16:45.863Z,96664.34
2023-10-14T11:19:14.183Z,96669.31
2023-10-14T11:21:48.124Z,96679.16
2023-10-14T11:24:17.488Z,96674.78
2023-10-14T11:26:46.946Z,96687.34
2023-10-14T11:29:15.129Z,96680.72
2023-10-14T11:31:45.373Z,96694.53
2023-10-14T11:34:13.995Z,96693.03
2023-10-14T11:36:45.461Z,96704.84
2023-10-14T11:39:23.012Z,96708.16
2023-10-14T11:41:55.212Z,96715.22
2023-10-14T11:44:31.262Z,96717.69
2023-10-14T11:47:00.840Z,96718.03
2023-10-14T11:49:29.382Z,96716.47
2023-10-14T11:51:57.679Z,96723.75
2023-10-14T11:54:27.438Z,96740.31
2023-10-14T11:56:57.042Z,96742.03
2023-10-14T11:59:29.128Z,96743.72
2023-10-14T12:02:01.606Z,96738.66
2023-10-14T12:04:31.044Z,96740.88
2023-10-14T12:07:05.664Z,96747.06
2023-10-14T12:09:34.127Z,96741.03
2023-10-14T12:12:04.408Z,96747.41
2023-10-14T12:14:35.644Z,96744.81
2023-10-14T12:17:20.715Z,96741.78
2023-10-14T12:19:50.053Z,96758.75
2023-10-14T12:22:20.701Z,96760.22
2023-10-14T12:24:50.027Z,96758.44
2023-10-14T12:27:26.583Z,96769.66
2023-10-14T12:29:54.506Z,96782.38
2023-10-14T12:32:22.571Z,96783.97
2023-10-14T12:34:53.486Z,96779.22
2023-10-14T12:37:26.328Z,96779.84
2023-10-14T12:39:57.097Z,96785.53
2023-10-14T12:42:46.264Z,96785.28
2023-10-14T12:45:24.357Z,96783.38
2023-10-14T12:47:58.787Z,96779.50
2023-10-14T12:50:32.110Z,96784.16
2023-10-14T12:53:01.799Z,96795.53
2023-10-14T12:55:32.090Z,96793.81
2023-10-14T12:58:02.756Z,96791.75
2023-10-14T13:00:33.801Z,96795.09
2023-10-14T13:03:03.028Z,96796.00
2023-10-14T13:05:35.356Z,96799.03
2023-10-14T13:08:03.751Z,96798.44
2023-10-14T13:10:33.916Z,96796.50
2023-10-14T13:13:06.185Z,96793.88
2023-10-14T13:15:36.289Z,96796.59
2023-10-14T13:18:06.441Z,96799.44
2023-10-14T13:20:36.151Z,96808.06
2023-10-14T13:23:05.770Z,96816.25
2023-10-14T13:25:37.907Z,96814.19
2023-10-14T13:28:09.645Z,96816.69
2023-10-14T13:30:40.272Z,96810.91
2023-10-14T13:33:08.930Z,96824.97
2023-10-14T13:35:37.027Z,96821.44
2023-10-14T13:38:06.385Z,96816.78
2023-10-14T13:40:41.514Z,96819.50
2023-10-14T13:43:14.799Z,96813.16
2023-10-14T13:45:44.080Z,96816.69
2023-10-14T13:48:21.775Z,96811.50
2023-10-14T13:50:55.492Z,96805.66
2023-10-14T13:53:24.756Z,96814.34
2023-10-14T13:55:55.643Z,96824.53
2023-10-14T13:58:25.845Z,96830.81
2023-10-14T14:00:53.939Z,96843.91
2023-10-14T14:03:30.085Z,96852.22
2023-10-14T14:05:58.760Z,96859.75
2023-10-14T14:08:33.895Z,96873.75
2023-10-14T14:11:07.148Z,96882.94
2023-10-14T14:13:36.976Z,96889.66
2023-10-14T14:16:06.596Z,96897.25
2023-10-14T14:18:34.784Z,96901.66
2023-10-14T14:21:02.693Z,96903.69
2023-10-14T14:23:32.013Z,96901.97
2023-10-14T14:26:01.377Z,96902.78
2023-10-14T14:28:29.400Z,96906.78
2023-10-14T14:30:58.851Z,96915.78
2023-10-14T14:33:30.694Z,96916.22
2023-10-14T14:36:00.110Z,96919.88
2023-10-14T14:38:31.095Z,96922.84
2023-10-14T14:40:59.414Z,96927.47
2023-10-14T14:43:28.938Z,96929.13
2023-10-14T14:46:01.385Z,96931.75
2023-10-14T14:48:29.386Z,96934.25
2023-10-14T14:50:57.444Z,96929.38
2023-10-14T14:53:26.277Z,96925.66
2023-10-14T14:55:54.228Z,96944.81
2023-10-14T14:58:22.331Z,96936.28
2023-10-14T15:00:53.044Z,96949.69
2023-10-14T15:03:22.586Z,96947.31
2023-10-14T15:05:51.672Z,96954.50
2023-10-14T15:08:20.529Z,96963.84
2023-10-14T15:10:48.482Z,96962.56
2023-10-14T15:13:18.005Z,96964.72
2023-10-14T15:15:51.036Z,96968.94
2023-10-14T15:18:23.607Z,96967.31
2023-10-14T15:20:53.086Z,96974.59
2023-10-14T15:23:21.929Z,96974.91
2023-10-14T15:25:49.983Z,96975.94
2023-10-14T15:28:21.265Z,96988.00
2023-10-14T15:30:51.133Z,96982.72
2023-10-14T15:33:23.618Z,96987.22
2023-10-14T15:35:55.811Z,96987.66
2023-10-14T15:38:26.348Z,96991.91
2023-10-14T15:40:54.332Z,96990.69
2023-10-14T15:43:22.337Z,96990.91
2023-10-14T15:45:50.353Z,96998.81
2023-10-14T15:48:23.736Z,96995.75
2023-10-14T15:50:52.494Z,97001.47
2023-10-14T15:53:22.648Z,97002.66
2023-10-14T15:55:53.048Z,97008.38
2023-10-14T15:58:34.762Z,97002.69
2023-10-14T16:01:09.678Z,97008.00
2023-10-14T16:03:42.309Z,97010.81
2023-10-14T16:06:12.726Z,97011.66
2023-10-14T16:08:41.423Z,97017.91
2023-10-14T16:11:09.660Z,97018.31
2023-10-14T16:13:41.741Z,97025.44
2023-10-14T16:16:10.618Z,97026.06
2023-10-14T16:18:38.751Z,97032.34
2023-10-14T16:21:06.847Z,97037.84
2023-10-14T16:23:38.582Z,97038.84
2023-10-14T16:26:13.013Z,97034.38
2023-10-14T16:28:43.927Z,97035.53
2023-10-14T16:31:12.937Z,97020.66
2023-10-14T16:33:41.094Z,97011.34
2023-10-14T16:36:09.259Z,97010.47
2023-10-14T16:38:44.514Z,97014.22
2023-10-14T16:41:12.558Z,97009.97
2023-10-14T16:43:40.645Z,97017.56
2023-10-14T16:46:11.145Z,97016.56
2023-10-14T16:48:39.277Z,97014.78
2023-10-14T16:51:11.548Z,97008.25
2023-10-14T16:53:41.165Z,97001.44
2023-10-14T16:56:14.900Z,96997.16
2023-10-14T16:58:46.147Z,96989.25
2023-10-14T17:01:16.601Z,96968.91
2023-10-14T17:03:45.656Z,96972.28
2023-10-14T17:06:16.351Z,96959.63
2023-10-14T17:08:48.841Z,96934.78
2023-10-14T17:11:16.721Z,96934.13
2023-10-14T17:13:45.283Z,96923.19
2023-10-14T17:16:14.613Z,96913.50
2023-10-14T17:18:45.509Z,96916.69
2023-10-14T17:21:21.442Z,96916.38
2023-10-14T17:23:52.754Z,96938.19
2023-10-14T17:26:23.661Z,96935.97
2023-10-14T17:28:54.751Z,96959.16
2023-10-14T17:31:22.819Z,96956.13
2023-10-14T17:33:51.004Z,96960.28
2023-10-14T17:36:19.125Z,96968.56
2023-10-14T17:38:50.594Z,96961.28
2023-10-14T17:41:20.354Z,96958.13
2023-10-14T17:43:49.165Z,96973.91
2023-10-14T17:46:22.180Z,96977.38
2023-10-14T17:48:50.896Z,96989.00
2023-10-14T17:51:18.854Z,96987.06
2023-10-14T17:53:48.988Z,96982.91
2023-10-14T17:56:18.023Z,96974.28
2023-10-14T17:58:48.004Z,96949.75
2023-10-14T18:01:16.116Z,96949.56
2023-10-14T18:03:45.512Z,96943.13
2023-10-14T18:06:18.895Z,96950.13
2023-10-14T18:08:47.033Z,96955.78
2023-10-14T18:11:14.972Z,96968.81
2023-10-14T18:13:45.078Z,96962.28
2023-10-14T18:16:14.640Z,96980.44
2023-10-14T18:18:45.629Z,96984.56
2023-10-14T18:21:16.938Z,96985.16
2023-10-14T18:23:47.997Z,96963.56
2023-10-14T18:26:17.716Z,96964.53
2023-10-14T18:28:45.628Z,96974.13
2023-10-14T18:31:15.169Z,96993.69
2023-10-14T18:33:43.145Z,96996.44
2023-10-14T18:36:12.149Z,96999.72
2023-10-14T18:38:40.781Z,97003.09
2023-10-14T18:41:13.534Z,97000.69
2023-10-14T18:43:43.517Z,96981.50
2023-10-14T18:46:17.411Z,96979.06
2023-10-14T18:48:45.649Z,96971.34
2023-10-14T18:51:23.082Z,96963.56
2023-10-14T18:53:55.114Z,96965.72
2023-10-14T18:56:25.660Z,96979.50
2023-10-14T18:58:56.798Z,96989.66
2023-10-14T19:01:29.754Z,97000.34
2023-10-14T19:04:00.994Z,97015.41
2023-10-14T19:06:29.372Z,97027.69
2023-10-14T19:09:00.858Z,97038.19
2023-10-14T19:11:31.116Z,97026.97
2023-10-14T19:14:00.537Z,97033.66
2023-10-14T19:16:33.336Z,97056.66
2023-10-14T19:19:01.414Z,97090.91
2023-10-14T19:21:29.313Z,97118.38
2023-10-14T19:23:58.943Z,97133.00
2023-10-14T19:26:28.622Z,97149.94
2023-10-14T19:28:57.889Z,97160.19
2023-10-14T19:31:26.249Z,97175.16
2023-10-14T19:33:56.652Z,97179.69
2023-10-14T19:36:25.038Z,97191.84
2023-10-14T19:38:54.347Z,97203.50
2023-10-14T19:41:22.321Z,97220.41
2023-10-14T19:43:52.775Z,97225.84
2023-10-14T19:46:22.109Z,97236.66
2023-10-14T19:48:50.271Z,97243.44
2023-10-14T19:51:19.594Z,97261.78
2023-10-14T19:53:47.649Z,97264.56
2023-10-14T19:56:18.681Z,97279.47
2023-10-14T19:58:46.886Z,97279.88
2023-10-14T20:01:17.278Z,97288.31
2023-10-14T20:03:46.317Z,97291.31
2023-10-14T20:06:23.414Z,97293.25
2023-10-14T20:08:51.986Z,97303.88
2023-10-14T20:11:20.892Z,97306.66
2023-10-14T20:13:49.038Z,97318.28
2023-10-14T20:16:18.336Z,97317.78
2023-10-14T20:18:47.534Z,97324.25
2023-10-14T20:21:16.426Z,97323.16
2023-10-14T20:23:45.702Z,97323.16
2023-10-14T20:26:15.856Z,97333.66
2023-10-14T20:28:47.228Z,97335.94
2023-10-14T20:31:16.650Z,97320.84
2023-10-14T20:33:47.664Z,97323.63
2023-10-14T20:36:15.551Z,97318.38
2023-10-14T20:38:44.829Z,97303.25
2023-10-14T20:41:12.893Z,97305.56
2023-10-14T20:43:40.895Z,97296.56
2023-10-14T20:46:10.178Z,97299.50
2023-10-14T20:48:39.888Z,97304.81
2023-10-14T20:51:11.295Z,97312.91
2023-10-14T20:53:41.303Z,97307.78
2023-10-14T20:56:12.324Z,97304.16
2023-10-14T20:58:40.310Z,97296.63
2023-10-14T21:01:14.060Z,97305.84
2023-10-14T21:03:42.110Z,97307.56
2023-10-14T21:06:10.271Z,97314.91
2023-10-14T21:08:38.199Z,97309.88
2023-10-14T21:11:14.051Z,97317.53
2023-10-14T21:13:43.015Z,97318.06
2023-10-14T21:16:11.555Z,97322.16
2023-10-14T21:18:40.196Z,97326.78
2023-10-14T21:21:13.692Z,97330.47
2023-10-14T21:23:41.543Z,97323.91
2023-10-14T21:26:10.966Z,97337.00
2023-10-14T21:28:40.367Z,97333.31
2023-10-14T21:31:11.100Z,97334.31
2023-10-14T21:33:39.045Z,97318.69
2023-10-14T21:36:15.032Z,97330.41
2023-10-14T21:38:43.001Z,97323.63
2023-10-14T21:41:13.004Z,97320.41
2023-10-14T21:43:43.010Z,97318.22
2023-10-14T21:46:11.570Z,97307.81
2023-10-14T21:48:39.500Z,97321.53
2023-10-14T21:51:09.037Z,97315.38
2023-10-14T21:53:37.255Z,97320.16
2023-10-14T21:56:06.045Z,97318.19
2023-10-14T21:58:34.032Z,97313.88
2023-10-14T22:01:15.428Z,97300.06
2023-10-14T22:03:46.524Z,97302.25
2023-10-14T22:06:14.708Z,97299.56
2023-10-14T22:08:42.716Z,97294.38
2023-10-14T22:11:12.322Z,97287.00
2023-10-14T22:13:44.051Z,97277.72
2023-10-14T22:16:13.378Z,97269.00
2023-10-14T22:18:41.960Z,97277.94
2023-10-14T22:21:10.088Z,97269.06
2023-10-14T22:23:38.234Z,97263.38
2023-10-14T22:26:08.799Z,97269.34
2023-10-14T22:28:38.328Z,97271.00
2023-10-14T22:31:07.158Z,97267.75
2023-10-14T22:33:37.311Z,97269.03
2023-10-14T22:36:04.737Z,97266.75
2023-10-14T22:38:34.022Z,97253.06
2023-10-14T22:41:02.064Z,97258.13
2023-10-14T22:43:30.550Z,97252.38
2023-10-14T22:45:59.543Z,97255.59
2023-10-14T22:48:27.583Z,97249.56
2023-10-14T22:50:57.875Z,97251.03
2023-10-14T22:53:26.286Z,97255.13
2023-10-14T22:55:55.258Z,97264.69
2023-10-14T22:58:23.359Z,97261.44
2023-10-14T23:00:53.442Z,97263.88
2023-10-14T23:03:21.645Z,97271.91
2023-10-14T23:05:52.223Z,97271.88
2023-10-14T23:08:21.758Z,97268.16
2023-10-14T23:10:49.655Z,97266.06
2023-10-14T23:13:17.574Z,97271.06
2023-10-14T23:15:47.741Z,97276.25
2023-10-14T23:18:15.919Z,97284.44
2023-10-14T23:20:43.920Z,97279.47
2023-10-14T23:23:11.843Z,97288.22
2023-10-14T23:25:43.049Z,97281.97
2023-10-14T23:28:12.077Z,97273.44
2023-10-14T23:30:40.094Z,97270.59
2023-10-14T23:33:08.910Z,97263.75
2023-10-14T23:35:36.954Z,97257.78
2023-10-14T23:38:07.433Z,97262.44
2023-10-14T23:40:35.691Z,97258.63
2023-10-14T23:43:09.829Z,97263.22
2023-10-14T23:45:38.099Z,97264.69
2023-10-14T23:48:06.910Z,97259.50
2023-10-14T23:50:37.456Z,97272.78
2023-10-14T23:53:06.836Z,97280.13
2023-10-14T23:55:35.366Z,97272.69
2023-10-14T23:58:04.372Z,97287.00
